sensor_id;sensor_type;location;lat;lon;timestamp;pressure;altitude;pressure_sealevel;temperature;humidity
64835;BME280;51293;59.296;18.006;2022-12-29T00:02:16;99740.59;;;0.14;100.00
64835;BME280;51293;59.296;18.006;2022-12-29T00:04:41;99735.88;;;0.16;100.00
64835;BME280;51293;59.296;18.006;2022-12-29T00:07:07;99739.56;;;0.15;100.00
64835;BME280;51293;59.296;18.006;2022-12-29T00:09:33;99746.38;;;0.17;100.00
64835;BME280;51293;59.296;18.006;2022-12-29T00:11:59;99740.22;;;0.17;100.00
64835;BME280;51293;59.296;18.006;2022-12-29T00:14:26;99747.19;;;0.18;100.00
64835;BME280;51293;59.296;18.006;2022-12-29T00:17:10;99747.19;;;0.18;100.00
64835;BME280;51293;59.296;18.006;2022-12-29T00:19:35;99751.50;;;0.19;100.00
64835;BME280;51293;59.296;18.006;2022-12-29T00:22:19;99739.22;;;0.18;100.00
64835;BME280;51293;59.296;18.006;2022-12-29T00:25:04;99736.34;;;0.19;100.00
64835;BME280;51293;59.296;18.006;2022-12-29T00:27:30;99739.84;;;0.20;100.00
64835;BME280;51293;59.296;18.006;2022-12-29T00:30:21;99737.38;;;0.18;100.00
64835;BME280;51293;59.296;18.006;2022-12-29T00:33:10;99733.22;;;0.16;100.00
64835;BME280;51293;59.296;18.006;2022-12-29T00:38:32;99722.97;;;0.13;100.00
64835;BME280;51293;59.296;18.006;2022-12-29T00:41:19;99717.19;;;0.09;100.00
64835;BME280;51293;59.296;18.006;2022-12-29T00:44:03;99716.09;;;0.04;100.00
64835;BME280;51293;59.296;18.006;2022-12-29T00:46:38;99717.13;;;0.03;100.00
64835;BME280;51293;59.296;18.006;2022-12-29T00:49:04;99714.81;;;-0.01;100.00
64835;BME280;51293;59.296;18.006;2022-12-29T00:51:49;99715.66;;;0.00;100.00
64835;BME280;51293;59.296;18.006;2022-12-29T00:54:15;99721.00;;;0.00;100.00
64835;BME280;51293;59.296;18.006;2022-12-29T00:56:40;99720.13;;;-0.01;100.00
64835;BME280;51293;59.296;18.006;2022-12-29T00:59:08;99720.78;;;0.02;100.00
64835;BME280;51293;59.296;18.006;2022-12-29T01:01:35;99717.13;;;0.03;100.00
64835;BME280;51293;59.296;18.006;2022-12-29T01:04:01;99712.63;;;0.03;100.00
64835;BME280;51293;59.296;18.006;2022-12-29T01:06:26;99722.06;;;0.06;100.00
64835;BME280;51293;59.296;18.006;2022-12-29T01:08:52;99714.06;;;0.06;100.00
64835;BME280;51293;59.296;18.006;2022-12-29T01:11:37;99710.38;;;0.07;100.00
64835;BME280;51293;59.296;18.006;2022-12-29T01:14:03;99712.03;;;0.08;100.00
64835;BME280;51293;59.296;18.006;2022-12-29T01:16:28;99708.38;;;0.09;100.00
64835;BME280;51293;59.296;18.006;2022-12-29T01:18:54;99703.06;;;0.09;100.00
64835;BME280;51293;59.296;18.006;2022-12-29T01:21:19;99697.75;;;0.09;100.00
64835;BME280;51293;59.296;18.006;2022-12-29T01:23:44;99701.22;;;0.09;100.00
64835;BME280;51293;59.296;18.006;2022-12-29T01:26:12;99705.34;;;0.12;100.00
64835;BME280;51293;59.296;18.006;2022-12-29T01:28:38;99690.38;;;0.11;100.00
64835;BME280;51293;59.296;18.006;2022-12-29T01:31:10;99688.34;;;0.13;100.00
64835;BME280;51293;59.296;18.006;2022-12-29T01:33:35;99691.84;;;0.13;100.00
64835;BME280;51293;59.296;18.006;2022-12-29T01:36:06;99691.63;;;0.15;100.00
64835;BME280;51293;59.296;18.006;2022-12-29T01:38:32;99684.47;;;0.15;100.00
64835;BME280;51293;59.296;18.006;2022-12-29T01:40:58;99678.97;;;0.17;100.00
64835;BME280;51293;59.296;18.006;2022-12-29T01:43:52;99680.78;;;0.16;100.00
64835;BME280;51293;59.296;18.006;2022-12-29T01:48:53;99668.97;;;0.19;100.00
64835;BME280;51293;59.296;18.006;2022-12-29T01:51:22;99673.47;;;0.18;100.00
64835;BME280;51293;59.296;18.006;2022-12-29T01:53:49;99673.66;;;0.17;100.00
64835;BME280;51293;59.296;18.006;2022-12-29T01:56:16;99675.31;;;0.18;100.00
64835;BME280;51293;59.296;18.006;2022-12-29T01:58:45;99672.63;;;0.18;100.00
64835;BME280;51293;59.296;18.006;2022-12-29T02:01:13;99663.00;;;0.17;100.00
64835;BME280;51293;59.296;18.006;2022-12-29T02:03:39;99655.00;;;0.17;100.00
64835;BME280;51293;59.296;18.006;2022-12-29T02:06:12;99657.47;;;0.18;100.00
64835;BME280;51293;59.296;18.006;2022-12-29T02:08:40;99654.81;;;0.18;100.00
64835;BME280;51293;59.296;18.006;2022-12-29T02:11:06;99652.97;;;0.19;100.00
64835;BME280;51293;59.296;18.006;2022-12-29T02:13:32;99653.19;;;0.17;100.00
64835;BME280;51293;59.296;18.006;2022-12-29T02:16:24;99640.69;;;0.18;100.00
64835;BME280;51293;59.296;18.006;2022-12-29T02:35:13;99619.81;;;0.21;100.00
64835;BME280;51293;59.296;18.006;2022-12-29T02:38:03;99613.47;;;0.22;100.00
64835;BME280;51293;59.296;18.006;2022-12-29T02:40:49;99614.69;;;0.20;100.00
64835;BME280;51293;59.296;18.006;2022-12-29T02:43:36;99617.97;;;0.22;100.00
64835;BME280;51293;59.296;18.006;2022-12-29T02:46:12;99612.63;;;0.22;100.00
64835;BME280;51293;59.296;18.006;2022-12-29T02:48:52;99611.81;;;0.21;100.00
64835;BME280;51293;59.296;18.006;2022-12-29T02:51:29;99615.09;;;0.23;100.00
64835;BME280;51293;59.296;18.006;2022-12-29T02:53:57;99607.13;;;0.23;100.00
64835;BME280;51293;59.296;18.006;2022-12-29T02:56:41;99596.31;;;0.25;100.00
64835;BME280;51293;59.296;18.006;2022-12-29T02:59:07;99595.09;;;0.27;100.00
64835;BME280;51293;59.296;18.006;2022-12-29T03:01:46;99597.56;;;0.29;100.00
64835;BME280;51293;59.296;18.006;2022-12-29T03:07:23;99594.31;;;0.34;100.00
64835;BME280;51293;59.296;18.006;2022-12-29T03:10:04;99605.00;;;0.40;100.00
64835;BME280;51293;59.296;18.006;2022-12-29T03:21:06;99599.19;;;0.51;100.00
64835;BME280;51293;59.296;18.006;2022-12-29T03:23:34;99599.66;;;0.62;100.00
64835;BME280;51293;59.296;18.006;2022-12-29T03:26:05;99593.06;;;0.57;100.00
64835;BME280;51293;59.296;18.006;2022-12-29T03:28:40;99583.66;;;0.62;100.00
64835;BME280;51293;59.296;18.006;2022-12-29T03:31:08;99582.91;;;0.68;100.00
64835;BME280;51293;59.296;18.006;2022-12-29T03:33:36;99571.41;;;0.67;100.00
64835;BME280;51293;59.296;18.006;2022-12-29T03:36:04;99572.47;;;0.73;100.00
64835;BME280;51293;59.296;18.006;2022-12-29T03:38:40;99572.91;;;0.76;100.00
64835;BME280;51293;59.296;18.006;2022-12-29T03:41:11;99578.66;;;0.80;100.00
64835;BME280;51293;59.296;18.006;2022-12-29T03:43:39;99565.53;;;0.78;100.00
64835;BME280;51293;59.296;18.006;2022-12-29T03:46:05;99569.84;;;0.79;100.00
64835;BME280;51293;59.296;18.006;2022-12-29T03:48:30;99557.13;;;0.75;100.00
64835;BME280;51293;59.296;18.006;2022-12-29T03:50:58;99556.97;;;0.83;100.00
64835;BME280;51293;59.296;18.006;2022-12-29T03:53:23;99544.63;;;0.82;100.00
64835;BME280;51293;59.296;18.006;2022-12-29T03:55:48;99551.44;;;0.84;100.00
64835;BME280;51293;59.296;18.006;2022-12-29T03:58:14;99543.44;;;0.84;100.00
64835;BME280;51293;59.296;18.006;2022-12-29T04:00:40;99541.63;;;0.92;100.00
64835;BME280;51293;59.296;18.006;2022-12-29T04:03:05;99532.81;;;0.91;100.00
64835;BME280;51293;59.296;18.006;2022-12-29T04:05:30;99524.81;;;0.91;100.00
64835;BME280;51293;59.296;18.006;2022-12-29T04:07:56;99527.47;;;0.91;100.00
64835;BME280;51293;59.296;18.006;2022-12-29T04:10:21;99510.88;;;0.96;100.00
64835;BME280;51293;59.296;18.006;2022-12-29T04:12:47;99513.38;;;1.04;100.00
64835;BME280;51293;59.296;18.006;2022-12-29T04:15:12;99518.25;;;0.94;100.00
64835;BME280;51293;59.296;18.006;2022-12-29T04:17:37;99508.00;;;0.97;100.00
64835;BME280;51293;59.296;18.006;2022-12-29T04:20:04;99505.53;;;0.96;100.00
64835;BME280;51293;59.296;18.006;2022-12-29T04:22:48;99505.78;;;1.01;100.00
64835;BME280;51293;59.296;18.006;2022-12-29T04:25:13;99500.03;;;1.04;100.00
64835;BME280;51293;59.296;18.006;2022-12-29T04:27:39;99500.88;;;1.04;100.00
64835;BME280;51293;59.296;18.006;2022-12-29T04:30:04;99499.84;;;1.05;100.00
64835;BME280;51293;59.296;18.006;2022-12-29T04:32:30;99491.06;;;1.11;100.00
64835;BME280;51293;59.296;18.006;2022-12-29T04:34:55;99488.78;;;1.08;100.00
64835;BME280;51293;59.296;18.006;2022-12-29T04:37:21;99486.13;;;1.08;100.00
64835;BME280;51293;59.296;18.006;2022-12-29T04:39:46;99476.06;;;1.10;100.00
64835;BME280;51293;59.296;18.006;2022-12-29T04:42:11;99479.16;;;1.14;100.00
64835;BME280;51293;59.296;18.006;2022-12-29T04:44:37;99488.63;;;1.17;100.00
64835;BME280;51293;59.296;18.006;2022-12-29T04:47:02;99480.22;;;1.26;100.00
64835;BME280;51293;59.296;18.006;2022-12-29T04:49:27;99474.47;;;1.23;100.00
64835;BME280;51293;59.296;18.006;2022-12-29T04:51:53;99471.19;;;1.27;100.00
64835;BME280;51293;59.296;18.006;2022-12-29T04:54:18;99475.09;;;1.25;100.00
64835;BME280;51293;59.296;18.006;2022-12-29T04:56:44;99478.59;;;1.25;100.00
64835;BME280;51293;59.296;18.006;2022-12-29T04:59:09;99476.31;;;1.22;100.00
64835;BME280;51293;59.296;18.006;2022-12-29T05:01:34;99471.19;;;1.27;100.00
64835;BME280;51293;59.296;18.006;2022-12-29T05:04:00;99460.94;;;1.31;100.00
64835;BME280;51293;59.296;18.006;2022-12-29T05:06:25;99452.94;;;1.31;100.00
64835;BME280;51293;59.296;18.006;2022-12-29T05:08:50;99448.84;;;1.35;100.00
64835;BME280;51293;59.296;18.006;2022-12-29T05:11:16;99451.72;;;1.33;100.00
64835;BME280;51293;59.296;18.006;2022-12-29T05:13:45;99443.13;;;1.51;100.00
64835;BME280;51293;59.296;18.006;2022-12-29T05:16:11;99447.63;;;1.44;100.00
64835;BME280;51293;59.296;18.006;2022-12-29T05:18:36;99442.50;;;1.43;100.00
64835;BME280;51293;59.296;18.006;2022-12-29T05:21:01;99455.66;;;1.44;100.00
64835;BME280;51293;59.296;18.006;2022-12-29T05:23:27;99453.19;;;1.43;100.00
64835;BME280;51293;59.296;18.006;2022-12-29T05:25:52;99446.00;;;1.43;100.00
64835;BME280;51293;59.296;18.006;2022-12-29T05:28:17;99438.41;;;1.47;100.00
64835;BME280;51293;59.296;18.006;2022-12-29T05:30:43;99443.13;;;1.51;100.00
64835;BME280;51293;59.296;18.006;2022-12-29T05:33:08;99452.56;;;1.54;100.00
64835;BME280;51293;59.296;18.006;2022-12-29T05:35:36;99453.84;;;1.58;100.00
64835;BME280;51293;59.296;18.006;2022-12-29T05:38:02;99440.06;;;1.54;100.00
64835;BME280;51293;59.296;18.006;2022-12-29T05:40:27;99441.09;;;1.53;100.00
64835;BME280;51293;59.296;18.006;2022-12-29T05:42:52;99434.31;;;1.57;100.00
64835;BME280;51293;59.296;18.006;2022-12-29T05:45:18;99432.88;;;1.61;100.00
64835;BME280;51293;59.296;18.006;2022-12-29T05:47:43;99430.63;;;1.72;100.00
64835;BME280;51293;59.296;18.006;2022-12-29T05:50:08;99423.41;;;1.65;100.00
64835;BME280;51293;59.296;18.006;2022-12-29T05:52:34;99420.56;;;1.74;100.00
64835;BME280;51293;59.296;18.006;2022-12-29T05:54:59;99416.44;;;1.71;100.00
64835;BME280;51293;59.296;18.006;2022-12-29T05:57:24;99410.31;;;1.77;100.00
64835;BME280;51293;59.296;18.006;2022-12-29T05:59:50;99414.22;;;1.75;100.00
64835;BME280;51293;59.296;18.006;2022-12-29T06:02:15;99422.00;;;1.76;100.00
64835;BME280;51293;59.296;18.006;2022-12-29T06:04:40;99410.91;;;1.86;100.00
64835;BME280;51293;59.296;18.006;2022-12-29T06:07:06;99409.28;;;1.85;100.00
64835;BME280;51293;59.296;18.006;2022-12-29T06:09:31;99411.13;;;1.84;100.00
64835;BME280;51293;59.296;18.006;2022-12-29T06:11:57;99399.63;;;1.90;100.00
64835;BME280;51293;59.296;18.006;2022-12-29T06:14:22;99391.41;;;1.85;100.00
64835;BME280;51293;59.296;18.006;2022-12-29T06:16:47;99400.44;;;1.91;100.00
64835;BME280;51293;59.296;18.006;2022-12-29T06:19:13;99396.09;;;1.96;100.00
64835;BME280;51293;59.296;18.006;2022-12-29T06:21:38;99385.22;;;1.98;100.00
64835;BME280;51293;59.296;18.006;2022-12-29T06:24:04;99374.97;;;1.95;100.00
64835;BME280;51293;59.296;18.006;2022-12-29T06:26:30;99380.28;;;1.95;100.00
64835;BME280;51293;59.296;18.006;2022-12-29T06:28:55;99372.69;;;1.98;100.00
64835;BME280;51293;59.296;18.006;2022-12-29T06:31:21;99374.13;;;1.94;100.00
64835;BME280;51293;59.296;18.006;2022-12-29T06:33:46;99367.56;;;1.97;100.00
64835;BME280;51293;59.296;18.006;2022-12-29T06:36:11;99369.19;;;1.98;100.00
64835;BME280;51293;59.296;18.006;2022-12-29T06:38:37;99376.41;;;1.91;100.00
64835;BME280;51293;59.296;18.006;2022-12-29T06:41:02;99374.13;;;1.94;100.00
64835;BME280;51293;59.296;18.006;2022-12-29T06:43:28;99371.69;;;1.93;100.00
64835;BME280;51293;59.296;18.006;2022-12-29T06:45:53;99371.25;;;1.96;100.00
64835;BME280;51293;59.296;18.006;2022-12-29T06:48:18;99367.97;;;1.94;100.00
64835;BME280;51293;59.296;18.006;2022-12-29T06:50:44;99364.88;;;1.97;100.00
64835;BME280;51293;59.296;18.006;2022-12-29T06:53:09;99366.94;;;2.08;100.00
64835;BME280;51293;59.296;18.006;2022-12-29T06:55:34;99358.50;;;2.05;100.00
64835;BME280;51293;59.296;18.006;2022-12-29T06:58:00;99373.50;;;2.06;100.00
64835;BME280;51293;59.296;18.006;2022-12-29T07:00:26;99373.09;;;2.15;100.00
64835;BME280;51293;59.296;18.006;2022-12-29T07:02:52;99374.28;;;2.19;100.00
64835;BME280;51293;59.296;18.006;2022-12-29T07:05:19;99376.75;;;2.14;100.00
64835;BME280;51293;59.296;18.006;2022-12-29T07:07:44;99363.59;;;2.19;100.00
64835;BME280;51293;59.296;18.006;2022-12-29T07:10:10;99360.94;;;2.19;100.00
64835;BME280;51293;59.296;18.006;2022-12-29T07:12:35;99356.19;;;2.21;100.00
64835;BME280;51293;59.296;18.006;2022-12-29T07:15:01;99354.16;;;2.23;100.00
64835;BME280;51293;59.296;18.006;2022-12-29T07:17:26;99353.31;;;2.23;100.00
64835;BME280;51293;59.296;18.006;2022-12-29T07:19:51;99349.81;;;2.29;100.00
64835;BME280;51293;59.296;18.006;2022-12-29T07:22:17;99348.59;;;2.25;100.00
64835;BME280;51293;59.296;18.006;2022-12-29T07:24:42;99340.81;;;2.23;100.00
64835;BME280;51293;59.296;18.006;2022-12-29T07:27:08;99335.03;;;2.27;100.00
64835;BME280;51293;59.296;18.006;2022-12-29T07:29:34;99336.03;;;2.32;100.00
64835;BME280;51293;59.296;18.006;2022-12-29T07:31:59;99333.38;;;2.25;100.00
64835;BME280;51293;59.296;18.006;2022-12-29T07:34:24;99318.19;;;2.19;100.00
64835;BME280;51293;59.296;18.006;2022-12-29T07:36:50;99311.19;;;2.25;100.00
64835;BME280;51293;59.296;18.006;2022-12-29T07:39:15;99307.28;;;2.28;100.00
64835;BME280;51293;59.296;18.006;2022-12-29T07:41:40;99310.16;;;2.26;100.00
64835;BME280;51293;59.296;18.006;2022-12-29T07:44:08;99307.72;;;2.24;100.00
64835;BME280;51293;59.296;18.006;2022-12-29T07:46:33;99310.38;;;2.24;100.00
64835;BME280;51293;59.296;18.006;2022-12-29T07:48:59;99303.56;;;2.29;100.00
64835;BME280;51293;59.296;18.006;2022-12-29T07:51:24;99301.31;;;2.25;100.00
64835;BME280;51293;59.296;18.006;2022-12-29T07:53:50;99302.38;;;2.24;100.00
64835;BME280;51293;59.296;18.006;2022-12-29T07:56:15;99295.97;;;2.32;100.00
64835;BME280;51293;59.296;18.006;2022-12-29T07:58:41;99295.16;;;2.25;100.00
64835;BME280;51293;59.296;18.006;2022-12-29T08:01:07;99298.88;;;2.24;100.00
64835;BME280;51293;59.296;18.006;2022-12-29T08:03:32;99287.38;;;2.23;100.00
64835;BME280;51293;59.296;18.006;2022-12-29T08:05:57;99275.66;;;2.24;100.00
64835;BME280;51293;59.296;18.006;2022-12-29T08:08:23;99266.19;;;2.22;100.00
64835;BME280;51293;59.296;18.006;2022-12-29T08:10:48;99265.59;;;2.20;100.00
64835;BME280;51293;59.296;18.006;2022-12-29T08:13:14;99253.25;;;2.19;100.00
64835;BME280;51293;59.296;18.006;2022-12-29T08:15:39;99256.38;;;2.16;100.00
64835;BME280;51293;59.296;18.006;2022-12-29T08:18:05;99254.91;;;2.20;100.00
64835;BME280;51293;59.296;18.006;2022-12-29T08:20:31;99254.06;;;2.26;100.00
64835;BME280;51293;59.296;18.006;2022-12-29T08:22:56;99257.31;;;2.28;100.00
64835;BME280;51293;59.296;18.006;2022-12-29T08:25:22;99258.16;;;2.22;100.00
64835;BME280;51293;59.296;18.006;2022-12-29T08:27:47;99256.72;;;2.26;100.00
64835;BME280;51293;59.296;18.006;2022-12-29T08:30:14;99259.41;;;2.26;100.00
64835;BME280;51293;59.296;18.006;2022-12-29T08:32:40;99263.50;;;2.29;100.00
64835;BME280;51293;59.296;18.006;2022-12-29T08:35:05;99260.66;;;2.23;100.00
64835;BME280;51293;59.296;18.006;2022-12-29T08:37:32;99266.38;;;2.27;100.00
64835;BME280;51293;59.296;18.006;2022-12-29T08:39:58;99266.75;;;2.31;100.00
64835;BME280;51293;59.296;18.006;2022-12-29T08:42:25;99268.84;;;2.29;100.00
64835;BME280;51293;59.296;18.006;2022-12-29T08:44:56;99256.69;;;2.33;100.00
64835;BME280;51293;59.296;18.006;2022-12-29T08:47:21;99260.38;;;2.32;100.00
64835;BME280;51293;59.296;18.006;2022-12-29T08:49:46;99247.66;;;2.34;100.00
64835;BME280;51293;59.296;18.006;2022-12-29T08:52:12;99248.03;;;2.37;100.00
64835;BME280;51293;59.296;18.006;2022-12-29T08:54:37;99243.09;;;2.41;100.00
64835;BME280;51293;59.296;18.006;2022-12-29T08:57:02;99236.53;;;2.37;100.00
64835;BME280;51293;59.296;18.006;2022-12-29T08:59:28;99235.47;;;2.44;100.00
64835;BME280;51293;59.296;18.006;2022-12-29T09:01:53;99229.94;;;2.39;100.00
64835;BME280;51293;59.296;18.006;2022-12-29T09:04:19;99227.00;;;2.47;100.00
64835;BME280;51293;59.296;18.006;2022-12-29T09:06:45;99215.50;;;2.47;100.00
64835;BME280;51293;59.296;18.006;2022-12-29T09:09:10;99220.41;;;2.57;100.00
64835;BME280;51293;59.296;18.006;2022-12-29T09:11:36;99202.53;;;2.50;100.00
64835;BME280;51293;59.296;18.006;2022-12-29T09:14:01;99198.00;;;2.51;100.00
64835;BME280;51293;59.296;18.006;2022-12-29T09:16:27;99200.03;;;2.56;100.00
64835;BME280;51293;59.296;18.006;2022-12-29T09:18:52;99194.25;;;2.59;100.00
64835;BME280;51293;59.296;18.006;2022-12-29T09:21:18;99191.19;;;2.55;100.00
64835;BME280;51293;59.296;18.006;2022-12-29T09:23:43;99183.91;;;2.69;100.00
64835;BME280;51293;59.296;18.006;2022-12-29T09:26:09;99186.78;;;2.67;100.00
64835;BME280;51293;59.296;18.006;2022-12-29T09:28:34;99182.31;;;2.61;100.00
64835;BME280;51293;59.296;18.006;2022-12-29T09:31:00;99190.28;;;2.68;100.00
64835;BME280;51293;59.296;18.006;2022-12-29T09:33:26;99182.25;;;2.68;100.00
64835;BME280;51293;59.296;18.006;2022-12-29T09:35:57;99175.25;;;2.73;100.00
64835;BME280;51293;59.296;18.006;2022-12-29T09:38:23;99169.03;;;2.73;100.00
64835;BME280;51293;59.296;18.006;2022-12-29T09:40:55;99171.91;;;2.78;100.00
64835;BME280;51293;59.296;18.006;2022-12-29T09:48:37;99132.78;;;2.84;100.00
64835;BME280;51293;59.296;18.006;2022-12-29T09:51:10;99135.69;;;2.82;100.00
64835;BME280;51293;59.296;18.006;2022-12-29T09:53:43;99127.22;;;2.85;100.00
64835;BME280;51293;59.296;18.006;2022-12-29T09:56:13;99125.94;;;2.88;100.00
64835;BME280;51293;59.296;18.006;2022-12-29T09:58:44;99118.97;;;2.87;100.00
64835;BME280;51293;59.296;18.006;2022-12-29T10:01:21;99110.88;;;2.93;100.00
64835;BME280;51293;59.296;18.006;2022-12-29T10:03:54;99109.47;;;2.91;100.00
64835;BME280;51293;59.296;18.006;2022-12-29T10:06:22;99096.91;;;2.91;100.00
64835;BME280;51293;59.296;18.006;2022-12-29T10:08:58;99093.78;;;2.94;100.00
64835;BME280;51293;59.296;18.006;2022-12-29T10:11:43;99103.84;;;2.99;100.00
64835;BME280;51293;59.296;18.006;2022-12-29T10:14:36;99091.66;;;3.03;100.00
64835;BME280;51293;59.296;18.006;2022-12-29T10:19:56;99085.47;;;3.02;100.00
64835;BME280;51293;59.296;18.006;2022-12-29T10:25:15;99068.84;;;3.00;100.00
64835;BME280;51293;59.296;18.006;2022-12-29T10:27:41;99064.84;;;3.09;100.00
64835;BME280;51293;59.296;18.006;2022-12-29T10:30:11;99068.16;;;3.05;100.00
64835;BME280;51293;59.296;18.006;2022-12-29T10:32:44;99056.88;;;3.03;100.00
64835;BME280;51293;59.296;18.006;2022-12-29T10:35:12;99051.69;;;3.08;100.00
64835;BME280;51293;59.296;18.006;2022-12-29T10:37:50;99052.28;;;3.10;100.00
64835;BME280;51293;59.296;18.006;2022-12-29T10:40:26;99046.47;;;3.13;100.00
64835;BME280;51293;59.296;18.006;2022-12-29T10:42:55;99032.44;;;3.18;100.00
64835;BME280;51293;59.296;18.006;2022-12-29T10:45:26;99032.78;;;3.21;100.00
64835;BME280;51293;59.296;18.006;2022-12-29T10:47:55;99027.44;;;3.21;100.00
64835;BME280;51293;59.296;18.006;2022-12-29T10:50:25;99017.34;;;3.23;100.00
64835;BME280;51293;59.296;18.006;2022-12-29T10:52:51;99015.03;;;3.27;100.00
64835;BME280;51293;59.296;18.006;2022-12-29T10:55:24;99014.38;;;3.31;100.00
64835;BME280;51293;59.296;18.006;2022-12-29T10:57:53;99011.31;;;3.28;100.00
64835;BME280;51293;59.296;18.006;2022-12-29T11:00:22;99002.00;;;3.30;100.00
64835;BME280;51293;59.296;18.006;2022-12-29T11:08:27;98989.00;;;3.34;100.00
64835;BME280;51293;59.296;18.006;2022-12-29T11:11:00;98994.03;;;3.42;100.00
64835;BME280;51293;59.296;18.006;2022-12-29T11:13:29;98998.94;;;3.45;100.00
64835;BME280;51293;59.296;18.006;2022-12-29T11:15:55;98985.78;;;3.44;100.00
64835;BME280;51293;59.296;18.006;2022-12-29T11:18:32;98996.25;;;3.45;100.00
64835;BME280;51293;59.296;18.006;2022-12-29T11:21:03;98983.47;;;3.47;100.00
64835;BME280;51293;59.296;18.006;2022-12-29T11:23:37;98982.63;;;3.47;100.00
64835;BME280;51293;59.296;18.006;2022-12-29T11:26:18;98977.28;;;3.47;100.00
64835;BME280;51293;59.296;18.006;2022-12-29T11:29:08;98967.63;;;3.46;100.00
64835;BME280;51293;59.296;18.006;2022-12-29T11:31:41;98964.06;;;3.52;100.00
64835;BME280;51293;59.296;18.006;2022-12-29T11:34:07;98958.22;;;3.55;100.00
64835;BME280;51293;59.296;18.006;2022-12-29T11:36:33;98957.06;;;3.51;100.00
64835;BME280;51293;59.296;18.006;2022-12-29T11:39:00;98951.38;;;3.59;100.00
64835;BME280;51293;59.296;18.006;2022-12-29T11:41:28;98942.78;;;3.57;100.00
64835;BME280;51293;59.296;18.006;2022-12-29T11:43:57;98941.72;;;3.58;100.00
64835;BME280;51293;59.296;18.006;2022-12-29T11:48:51;98924.97;;;3.62;100.00
64835;BME280;51293;59.296;18.006;2022-12-29T11:51:25;98918.22;;;3.60;100.00
64835;BME280;51293;59.296;18.006;2022-12-29T11:53:56;98914.16;;;3.57;100.00
64835;BME280;51293;59.296;18.006;2022-12-29T11:56:43;98909.94;;;3.61;100.00
64835;BME280;51293;59.296;18.006;2022-12-29T12:01:52;98896.56;;;3.61;100.00
64835;BME280;51293;59.296;18.006;2022-12-29T12:04:21;98883.19;;;3.61;100.00
64835;BME280;51293;59.296;18.006;2022-12-29T12:06:56;98883.53;;;3.65;100.00
64835;BME280;51293;59.296;18.006;2022-12-29T12:09:53;98887.94;;;3.59;100.00
64835;BME280;51293;59.296;18.006;2022-12-29T12:12:37;98894.84;;;3.67;100.00
64835;BME280;51293;59.296;18.006;2022-12-29T12:15:05;98873.66;;;3.65;100.00
64835;BME280;51293;59.296;18.006;2022-12-29T12:17:43;98876.53;;;3.64;100.00
64835;BME280;51293;59.296;18.006;2022-12-29T12:23:47;98867.50;;;3.65;100.00
64835;BME280;51293;59.296;18.006;2022-12-29T12:26:21;98864.81;;;3.65;100.00
64835;BME280;51293;59.296;18.006;2022-12-29T12:28:56;98869.94;;;3.66;100.00
64835;BME280;51293;59.296;18.006;2022-12-29T12:31:46;98854.69;;;3.67;100.00
64835;BME280;51293;59.296;18.006;2022-12-29T12:34:23;98846.41;;;3.69;100.00
64835;BME280;51293;59.296;18.006;2022-12-29T12:45:32;98855.00;;;3.71;100.00
64835;BME280;51293;59.296;18.006;2022-12-29T12:50:52;98852.72;;;3.74;100.00
64835;BME280;51293;59.296;18.006;2022-12-29T12:55:54;98858.41;;;3.78;100.00
64835;BME280;51293;59.296;18.006;2022-12-29T12:58:32;98849.66;;;3.71;100.00
64835;BME280;51293;59.296;18.006;2022-12-29T13:07:01;98832.34;;;3.73;100.00
64835;BME280;51293;59.296;18.006;2022-12-29T13:09:42;98838.03;;;3.77;100.00
64835;BME280;51293;59.296;18.006;2022-12-29T13:12:35;98826.75;;;3.75;100.00
64835;BME280;51293;59.296;18.006;2022-12-29T13:15:35;98819.41;;;3.70;100.00
64835;BME280;51293;59.296;18.006;2022-12-29T13:21:04;98821.72;;;3.78;100.00
64835;BME280;51293;59.296;18.006;2022-12-29T13:24:37;98819.16;;;3.72;100.00
64835;BME280;51293;59.296;18.006;2022-12-29T13:26:43;98818.72;;;3.75;100.00
64835;BME280;51293;59.296;18.006;2022-12-29T13:29:18;98818.13;;;3.73;100.00
64835;BME280;51293;59.296;18.006;2022-12-29T13:32:22;98820.09;;;3.77;100.00
64835;BME280;51293;59.296;18.006;2022-12-29T13:35:05;98808.00;;;3.75;100.00
64835;BME280;51293;59.296;18.006;2022-12-29T13:37:46;98805.19;;;3.70;100.00
64835;BME280;51293;59.296;18.006;2022-12-29T13:40:18;98799.16;;;3.74;100.00
64835;BME280;51293;59.296;18.006;2022-12-29T13:42:46;98795.66;;;3.74;100.00
64835;BME280;51293;59.296;18.006;2022-12-29T13:45:19;98784.47;;;3.77;100.00
64835;BME280;51293;59.296;18.006;2022-12-29T13:47:51;98780.03;;;3.71;100.00
64835;BME280;51293;59.296;18.006;2022-12-29T13:50:21;98786.13;;;3.66;100.00
64835;BME280;51293;59.296;18.006;2022-12-29T13:53:14;98796.34;;;3.69;100.00
64835;BME280;51293;59.296;18.006;2022-12-29T13:56:19;98786.69;;;3.68;100.00
64835;BME280;51293;59.296;18.006;2022-12-29T13:59:36;98783.78;;;3.70;100.00
64835;BME280;51293;59.296;18.006;2022-12-29T14:02:31;98790.06;;;3.75;100.00
64835;BME280;51293;59.296;18.006;2022-12-29T14:04:31;98784.72;;;3.75;100.00
64835;BME280;51293;59.296;18.006;2022-12-29T14:07:12;98780.03;;;3.71;100.00
64835;BME280;51293;59.296;18.006;2022-12-29T14:09:56;98773.28;;;3.80;100.00
64835;BME280;51293;59.296;18.006;2022-12-29T14:12:40;98773.75;;;3.77;100.00
64835;BME280;51293;59.296;18.006;2022-12-29T14:17:35;98763.38;;;3.80;100.00
64835;BME280;51293;59.296;18.006;2022-12-29T14:20:02;98756.75;;;3.83;100.00
64835;BME280;51293;59.296;18.006;2022-12-29T14:22:29;98759.19;;;3.84;100.00
64835;BME280;51293;59.296;18.006;2022-12-29T14:24:54;98756.53;;;3.84;100.00
64835;BME280;51293;59.296;18.006;2022-12-29T14:29:47;98746.13;;;3.88;100.00
64835;BME280;51293;59.296;18.006;2022-12-29T14:38:24;98758.59;;;3.94;100.00